createdAt,value
2023-02-17T00:01:31.121Z,6.90
2023-02-17T00:03:59.438Z,7.00
2023-02-17T00:06:29.754Z,7.00
2023-02-17T00:08:58.087Z,6.90
2023-02-17T00:11:25.528Z,6.90
2023-02-17T00:13:54.592Z,6.80
2023-02-17T00:16:26.450Z,6.80
2023-02-17T00:18:57.356Z,6.80
2023-02-17T00:21:29.616Z,6.80
2023-02-17T00:23:58.702Z,6.70
2023-02-17T00:26:25.534Z,6.80
2023-02-17T00:28:52.386Z,6.80
2023-02-17T00:31:23.193Z,6.80
2023-02-17T00:33:50.412Z,6.90
2023-02-17T00:36:19.986Z,6.90
2023-02-17T00:38:48.749Z,6.90
2023-02-17T00:41:18.232Z,6.80
2023-02-17T00:43:46.114Z,6.80
2023-02-17T00:46:13.780Z,6.80
2023-02-17T00:48:41.334Z,6.80
2023-02-17T00:51:09.291Z,6.80
2023-02-17T00:53:37.010Z,6.80
2023-02-17T00:56:05.092Z,6.80
2023-02-17T00:58:32.190Z,6.80
2023-02-17T01:00:59.422Z,6.90
2023-02-17T01:03:27.084Z,6.90
2023-02-17T01:05:55.163Z,6.90
2023-02-17T01:08:23.314Z,6.90
2023-02-17T01:10:51.598Z,7.00
2023-02-17T01:13:19.750Z,6.90
2023-02-17T01:15:52.466Z,6.90
2023-02-17T01:18:23.705Z,7.00
2023-02-17T01:20:51.569Z,7.10
2023-02-17T01:23:18.827Z,7.20
2023-02-17T01:25:48.966Z,7.10
2023-02-17T01:28:20.741Z,7.10
2023-02-17T01:30:49.047Z,7.10
2023-02-17T01:33:16.034Z,7.10
2023-02-17T01:35:43.122Z,7.10
2023-02-17T01:38:10.018Z,7.10
2023-02-17T01:40:37.102Z,7.10
2023-02-17T01:43:04.219Z,7.20
2023-02-17T01:45:47.528Z,7.20
2023-02-17T01:48:18.233Z,7.30
2023-02-17T01:50:52.896Z,7.30
2023-02-17T01:53:30.984Z,7.30
2023-02-17T01:55:58.213Z,7.20
2023-02-17T01:58:27.374Z,7.30
2023-02-17T02:01:00.024Z,7.20
2023-02-17T02:03:31.663Z,7.30
2023-02-17T02:06:01.339Z,7.30
2023-02-17T02:08:42.883Z,7.30
2023-02-17T02:11:09.751Z,7.40
2023-02-17T02:13:36.794Z,7.20
2023-02-17T02:16:54.015Z,7.30
2023-02-17T02:20:09.023Z,7.30
2023-02-17T02:23:09.526Z,7.40
2023-02-17T02:26:52.704Z,7.40
2023-02-17T02:30:05.215Z,7.40
2023-02-17T02:33:35.572Z,7.50
2023-02-17T02:36:33.373Z,7.50
2023-02-17T02:39:07.495Z,7.50
2023-02-17T02:41:40.021Z,7.50
2023-02-17T02:44:14.786Z,7.50
2023-02-17T02:46:41.848Z,7.50
2023-02-17T02:49:09.789Z,7.60
2023-02-17T02:52:09.472Z,7.60
2023-02-17T02:54:55.901Z,7.60
2023-02-17T02:58:00.168Z,7.60
2023-02-17T03:00:48.897Z,7.60
2023-02-17T03:03:26.026Z,7.60
2023-02-17T03:06:14.768Z,7.50
2023-02-17T03:09:07.464Z,7.60
2023-02-17T03:11:34.935Z,7.50
2023-02-17T03:14:11.960Z,7.50
2023-02-17T03:16:41.604Z,7.50
2023-02-17T03:19:11.517Z,7.60
2023-02-17T03:22:07.604Z,7.60
2023-02-17T03:24:35.414Z,7.60
2023-02-17T03:27:02.778Z,7.60
2023-02-17T03:29:29.663Z,7.70
2023-02-17T03:31:56.907Z,7.60
2023-02-17T03:34:23.843Z,7.50
2023-02-17T03:36:50.677Z,7.50
2023-02-17T03:39:17.669Z,7.50
2023-02-17T03:41:44.579Z,7.60
2023-02-17T03:44:11.630Z,7.50
2023-02-17T03:46:40.928Z,7.50
2023-02-17T03:49:07.706Z,7.50
2023-02-17T03:51:34.634Z,7.50
2023-02-17T03:54:01.837Z,7.50
2023-02-17T03:56:28.782Z,7.50
2023-02-17T03:58:55.839Z,7.50
2023-02-17T04:01:22.904Z,7.50
2023-02-17T04:03:50.379Z,7.50
2023-02-17T04:06:17.994Z,7.50
2023-02-17T04:08:44.829Z,7.60
2023-02-17T04:11:11.795Z,7.50
2023-02-17T04:13:40.120Z,7.50
2023-02-17T04:16:10.059Z,7.50
2023-02-17T04:18:37.851Z,7.50
2023-02-17T04:21:06.183Z,7.50
2023-02-17T04:23:38.731Z,7.50
2023-02-17T04:26:07.716Z,7.50
2023-02-17T04:28:37.889Z,7.50
2023-02-17T04:31:04.999Z,7.50
2023-02-17T04:33:31.879Z,7.60
2023-02-17T04:36:01.454Z,7.60
2023-02-17T04:38:31.403Z,7.60
2023-02-17T04:41:00.322Z,7.60
2023-02-17T04:43:28.813Z,7.70
2023-02-17T04:45:56.065Z,7.60
2023-02-17T04:48:24.032Z,7.60
2023-02-17T04:50:51.672Z,7.60
2023-02-17T04:53:19.302Z,7.60
2023-02-17T05:09:54.657Z,7.50
2023-02-17T05:12:21.670Z,8.20
2023-02-17T05:14:48.798Z,8.00
2023-02-17T05:17:15.797Z,7.90
2023-02-17T05:19:42.784Z,7.70
2023-02-17T05:22:10.051Z,7.60
2023-02-17T05:24:38.886Z,7.60
2023-02-17T05:27:06.457Z,7.50
2023-02-17T05:29:33.510Z,7.50
2023-02-17T05:32:00.602Z,7.50
2023-02-17T05:34:27.756Z,7.50
2023-02-17T05:36:54.746Z,7.50
2023-02-17T05:39:21.767Z,7.40
2023-02-17T05:41:48.762Z,7.40
2023-02-17T05:44:15.835Z,7.40
2023-02-17T05:46:42.842Z,7.40
2023-02-17T05:49:09.923Z,7.40
2023-02-17T05:51:37.435Z,7.40
2023-02-17T05:54:04.902Z,7.30
2023-02-17T05:56:33.483Z,7.20
2023-02-17T05:59:01.079Z,7.20
2023-02-17T06:01:28.243Z,7.20
2023-02-17T06:03:55.499Z,7.20
2023-02-17T06:06:22.488Z,7.30
2023-02-17T06:08:49.436Z,7.20
2023-02-17T06:11:16.391Z,7.20
2023-02-17T06:13:43.384Z,7.20
2023-02-17T06:16:10.545Z,7.20
2023-02-17T06:18:37.651Z,7.20
2023-02-17T06:21:05.097Z,7.20
2023-02-17T06:23:32.028Z,7.20
2023-02-17T06:25:59.486Z,7.10
2023-02-17T06:28:26.532Z,7.20
2023-02-17T06:30:53.690Z,7.10
2023-02-17T06:33:20.710Z,7.20
2023-02-17T06:35:52.033Z,7.20
2023-02-17T06:38:19.857Z,7.20
2023-02-17T06:40:47.070Z,7.20
2023-02-17T06:43:14.442Z,7.20
2023-02-17T06:45:41.363Z,7.20
2023-02-17T06:48:08.950Z,7.20
2023-02-17T06:50:36.266Z,7.20
2023-02-17T06:53:03.569Z,7.20
2023-02-17T06:55:30.965Z,7.20
2023-02-17T06:57:58.081Z,7.30
2023-02-17T07:00:25.031Z,7.30
2023-02-17T07:02:52.126Z,7.40
2023-02-17T07:05:19.436Z,7.40
2023-02-17T07:07:46.540Z,7.40
2023-02-17T07:10:13.746Z,7.50
2023-02-17T07:12:41.046Z,7.40
2023-02-17T07:15:12.090Z,7.40
2023-02-17T07:17:39.457Z,7.50
2023-02-17T07:20:07.584Z,7.50
2023-02-17T07:22:34.489Z,7.50
2023-02-17T07:25:01.563Z,7.50
2023-02-17T07:27:29.285Z,7.50
2023-02-17T07:29:56.518Z,7.50
2023-02-17T07:32:23.628Z,7.40
2023-02-17T07:34:50.554Z,7.40
2023-02-17T07:37:20.143Z,7.50
2023-02-17T07:39:48.051Z,7.50
2023-02-17T07:42:15.393Z,7.40
2023-02-17T07:44:42.405Z,7.50
2023-02-17T07:47:10.083Z,7.50
2023-02-17T07:49:37.105Z,7.40
2023-02-17T07:52:05.439Z,7.50
2023-02-17T07:54:32.743Z,7.50
2023-02-17T07:57:00.287Z,7.50
2023-02-17T07:59:27.562Z,7.60
2023-02-17T08:01:54.645Z,7.60
2023-02-17T08:04:21.696Z,7.60
2023-02-17T08:06:48.934Z,7.60
2023-02-17T08:09:34.901Z,7.70
2023-02-17T08:12:20.866Z,7.70
2023-02-17T08:14:47.963Z,7.80
2023-02-17T08:17:15.378Z,7.80
2023-02-17T08:19:48.329Z,7.80
2023-02-17T08:22:17.608Z,8.00
2023-02-17T08:24:45.627Z,8.00
2023-02-17T08:27:15.461Z,8.00
2023-02-17T08:29:43.771Z,8.00
2023-02-17T08:32:12.416Z,8.00
2023-02-17T08:34:39.512Z,8.00
2023-02-17T08:37:07.584Z,8.00
2023-02-17T08:39:35.754Z,8.00
2023-02-17T08:42:05.826Z,8.00
2023-02-17T08:44:36.143Z,8.10
2023-02-17T08:47:05.817Z,8.10
2023-02-17T08:49:33.594Z,8.10
2023-02-17T08:52:00.832Z,8.00
2023-02-17T08:54:30.535Z,8.10
2023-02-17T08:56:58.749Z,8.10
2023-02-17T08:59:25.880Z,8.10
2023-02-17T09:01:53.085Z,8.00
2023-02-17T09:04:20.434Z,8.10
2023-02-17T09:06:56.525Z,8.10
2023-02-17T09:09:29.203Z,8.10
2023-02-17T09:11:58.559Z,8.10
2023-02-17T09:14:25.839Z,8.20
2023-02-17T09:16:54.484Z,8.20
2023-02-17T09:19:22.389Z,8.20
2023-02-17T09:21:50.417Z,8.20
2023-02-17T09:24:18.216Z,8.20
2023-02-17T09:26:45.653Z,8.10
2023-02-17T09:29:12.777Z,8.10
2023-02-17T09:31:40.042Z,8.00
2023-02-17T09:34:07.421Z,7.90
2023-02-17T09:36:40.697Z,7.90
2023-02-17T09:39:08.129Z,8.00
2023-02-17T09:41:55.565Z,8.00
2023-02-17T09:44:26.316Z,8.00
2023-02-17T09:47:02.444Z,8.00
2023-02-17T09:49:48.357Z,8.00
2023-02-17T09:53:05.135Z,8.00
2023-02-17T09:55:41.159Z,8.00
2023-02-17T09:58:24.413Z,7.90
2023-02-17T10:00:56.175Z,7.90
2023-02-17T10:03:39.878Z,7.90
2023-02-17T10:06:29.408Z,7.90
2023-02-17T10:09:23.742Z,7.90
2023-02-17T10:12:13.808Z,8.00
2023-02-17T10:15:19.087Z,7.90
2023-02-17T10:18:32.525Z,7.90
2023-02-17T10:21:10.342Z,7.90
2023-02-17T10:23:39.235Z,7.80
2023-02-17T10:26:31.321Z,7.80
2023-02-17T10:29:30.244Z,7.80
2023-02-17T10:32:25.641Z,7.90
2023-02-17T10:35:23.383Z,7.90
2023-02-17T10:38:06.630Z,7.90
2023-02-17T10:40:34.001Z,7.90
2023-02-17T10:43:07.635Z,7.90
2023-02-17T10:45:49.852Z,8.00
2023-02-17T10:48:24.115Z,8.00
2023-02-17T10:50:53.932Z,8.10
2023-02-17T10:53:31.490Z,8.00
2023-02-17T10:56:20.692Z,8.00
2023-02-17T10:58:59.210Z,8.10
2023-02-17T11:01:28.230Z,8.20
2023-02-17T11:04:10.690Z,8.20
2023-02-17T11:06:51.054Z,8.20
2023-02-17T11:09:29.577Z,8.20
2023-02-17T11:12:12.306Z,8.20
2023-02-17T11:14:50.590Z,8.10
2023-02-17T11:17:44.263Z,8.10
2023-02-17T11:20:14.070Z,8.10
2023-02-17T11:23:06.523Z,8.10
2023-02-17T11:25:37.820Z,8.10
2023-02-17T11:28:14.734Z,8.10
2023-02-17T11:30:55.574Z,8.00
2023-02-17T11:33:44.375Z,8.10
2023-02-17T11:36:32.340Z,8.10
2023-02-17T11:39:00.886Z,8.10
2023-02-17T11:41:38.386Z,8.00
2023-02-17T11:44:09.244Z,8.00
2023-02-17T11:46:55.336Z,8.00
2023-02-17T11:49:43.914Z,8.00
2023-02-17T11:52:45.734Z,8.00
2023-02-17T11:55:46.462Z,8.10
2023-02-17T11:58:54.958Z,8.00
2023-02-17T12:02:06.848Z,8.10
2023-02-17T12:04:40.832Z,8.00
2023-02-17T12:07:25.512Z,8.10
2023-02-17T12:10:43.041Z,8.10
2023-02-17T12:13:23.361Z,8.10
2023-02-17T12:16:40.938Z,8.00
2023-02-17T12:19:50.579Z,8.00
2023-02-17T12:22:29.605Z,8.00
2023-02-17T12:25:31.873Z,8.00
2023-02-17T12:28:41.012Z,7.90
2023-02-17T12:31:39.893Z,7.90
2023-02-17T12:34:30.739Z,7.90
2023-02-17T12:37:00.175Z,7.90
2023-02-17T12:39:40.198Z,7.90
2023-02-17T12:42:23.315Z,8.00
2023-02-17T12:44:57.683Z,8.00
2023-02-17T12:47:46.573Z,8.00
2023-02-17T12:50:39.733Z,8.10
2023-02-17T12:53:21.866Z,8.10
2023-02-17T12:55:58.835Z,8.00
2023-02-17T12:58:29.477Z,8.10
2023-02-17T13:01:09.452Z,8.10
2023-02-17T13:03:37.622Z,8.10
2023-02-17T13:06:23.022Z,8.20
2023-02-17T13:09:21.217Z,8.20
2023-02-17T13:11:49.082Z,8.20
2023-02-17T13:14:40.847Z,8.30
2023-02-17T13:17:37.790Z,8.40
2023-02-17T13:20:10.827Z,8.40
2023-02-17T13:22:42.992Z,8.40
2023-02-17T13:25:30.674Z,8.30
2023-02-17T13:28:16.664Z,8.40
2023-02-17T13:30:52.291Z,8.40
2023-02-17T13:33:22.585Z,8.30
2023-02-17T13:35:50.317Z,8.40
2023-02-17T13:38:32.963Z,8.40
2023-02-17T13:41:05.854Z,8.40
2023-02-17T13:43:42.840Z,8.40
2023-02-17T13:46:26.096Z,8.50
2023-02-17T13:49:06.189Z,8.50
2023-02-17T13:51:34.488Z,8.50
2023-02-17T13:54:12.489Z,8.50
2023-02-17T13:56:43.012Z,8.50
2023-02-17T13:59:24.915Z,8.50
2023-02-17T14:01:55.104Z,8.50
2023-02-17T14:04:31.501Z,8.50
2023-02-17T14:07:01.113Z,8.50
2023-02-17T14:09:34.809Z,8.50
2023-02-17T14:12:06.992Z,8.50
2023-02-17T14:14:39.979Z,8.50
2023-02-17T14:17:32.714Z,8.50
2023-02-17T14:20:01.069Z,8.50
2023-02-17T14:22:33.001Z,8.60
2023-02-17T14:25:25.732Z,8.60
2023-02-17T14:27:53.010Z,8.60
2023-02-17T14:30:34.446Z,8.60
2023-02-17T14:33:25.554Z,8.60
2023-02-17T14:36:04.776Z,8.70
2023-02-17T14:38:40.672Z,8.70
2023-02-17T14:41:09.715Z,8.70
2023-02-17T14:43:37.098Z,8.70
2023-02-17T14:46:05.666Z,8.80
2023-02-17T14:48:33.231Z,8.80
2023-02-17T14:51:00.454Z,8.80
2023-02-17T14:53:33.294Z,8.80
2023-02-17T14:56:21.535Z,8.80
2023-02-17T14:58:49.495Z,8.80
2023-02-17T15:01:20.264Z,8.80
2023-02-17T15:03:47.572Z,8.80
2023-02-17T15:06:26.015Z,8.80
2023-02-17T15:08:55.197Z,8.90
2023-02-17T15:11:34.489Z,8.90
2023-02-17T15:14:03.016Z,8.90
2023-02-17T15:16:31.318Z,8.90
2023-02-17T15:18:59.653Z,9.00
2023-02-17T15:21:31.569Z,9.00
2023-02-17T15:24:06.202Z,9.00
2023-02-17T15:26:33.578Z,9.00
2023-02-17T15:29:01.404Z,8.90
2023-02-17T15:31:34.021Z,9.00
2023-02-17T15:34:06.583Z,8.90
2023-02-17T15:36:35.260Z,8.90
2023-02-17T15:39:02.435Z,9.00
2023-02-17T15:41:31.730Z,9.00
2023-02-17T15:44:01.310Z,9.00
2023-02-17T15:46:33.435Z,9.00
2023-02-17T15:49:01.092Z,9.00
2023-02-17T15:51:28.318Z,8.90
2023-02-17T15:53:55.462Z,8.90
2023-02-17T15:56:27.368Z,9.00
2023-02-17T15:58:55.560Z,9.00
2023-02-17T16:01:32.858Z,9.00
2023-02-17T16:04:00.275Z,8.90
2023-02-17T16:06:29.232Z,9.00
2023-02-17T16:08:58.891Z,9.10
2023-02-17T16:11:28.161Z,9.10
2023-02-17T16:13:56.350Z,9.10
2023-02-17T16:16:29.763Z,9.10
2023-02-17T16:18:57.518Z,9.10
2023-02-17T16:21:24.701Z,9.10
2023-02-17T16:23:59.537Z,9.20
2023-02-17T16:26:36.193Z,9.20
2023-02-17T16:29:21.249Z,9.10
2023-02-17T16:31:49.277Z,9.20
2023-02-17T16:34:23.741Z,9.20
2023-02-17T16:36:57.412Z,9.20
2023-02-17T16:39:24.977Z,9.20
2023-02-17T16:41:52.428Z,9.20
2023-02-17T16:44:22.931Z,9.20
2023-02-17T16:46:56.500Z,9.30
2023-02-17T16:49:32.699Z,9.30
2023-02-17T16:52:07.456Z,9.30
2023-02-17T16:54:35.804Z,9.40
2023-02-17T16:57:03.903Z,9.30
2023-02-17T16:59:31.039Z,9.30
2023-02-17T17:01:58.221Z,9.40
2023-02-17T17:04:25.371Z,9.40
2023-02-17T17:06:53.791Z,9.30
2023-02-17T17:09:24.560Z,9.40
2023-02-17T17:11:52.253Z,9.40
2023-02-17T17:14:21.545Z,9.40
2023-02-17T17:16:57.701Z,9.40
2023-02-17T17:19:25.362Z,9.40
2023-02-17T17:21:53.079Z,9.50
2023-02-17T17:24:20.603Z,9.50
2023-02-17T17:26:51.558Z,9.50
2023-02-17T17:29:20.583Z,9.50
2023-02-17T17:31:48.244Z,9.50
2023-02-17T17:34:15.561Z,9.50
2023-02-17T17:36:46.564Z,9.60
2023-02-17T17:39:24.271Z,9.60
2023-02-17T17:41:52.049Z,9.60
2023-02-17T17:44:21.943Z,9.60
2023-02-17T17:46:49.314Z,9.60
2023-02-17T17:49:18.513Z,9.70
2023-02-17T17:51:46.101Z,9.70
2023-02-17T17:54:13.336Z,9.70
2023-02-17T17:56:43.261Z,9.80
2023-02-17T17:59:15.347Z,9.70
2023-02-17T18:01:45.384Z,9.80
2023-02-17T18:04:13.323Z,9.80
2023-02-17T18:06:52.248Z,9.80
2023-02-17T18:09:32.196Z,9.80
2023-02-17T18:12:07.425Z,9.80
2023-02-17T18:14:38.061Z,9.70
2023-02-17T18:17:07.468Z,9.80
2023-02-17T18:19:35.039Z,9.80
2023-02-17T18:22:04.472Z,9.80
2023-02-17T18:24:32.144Z,9.80
2023-02-17T18:26:59.570Z,9.90
2023-02-17T18:29:27.760Z,9.90
2023-02-17T18:31:54.890Z,9.70
2023-02-17T18:34:22.121Z,9.90
2023-02-17T18:36:49.178Z,9.90
2023-02-17T18:39:16.284Z,9.90
2023-02-17T18:41:43.392Z,9.80
2023-02-17T18:44:11.560Z,9.50
2023-02-17T18:46:40.023Z,9.40
2023-02-17T18:49:07.589Z,9.30
2023-02-17T18:51:35.047Z,9.30
2023-02-17T18:54:03.563Z,9.20
2023-02-17T18:56:33.181Z,9.20
2023-02-17T18:59:00.617Z,9.10
2023-02-17T19:01:41.801Z,9.00
2023-02-17T19:04:13.155Z,9.00
2023-02-17T19:06:41.296Z,8.90
2023-02-17T19:09:08.455Z,9.00
2023-02-17T19:11:36.102Z,8.90
2023-02-17T19:14:04.066Z,8.70
2023-02-17T19:16:34.227Z,8.60
2023-02-17T19:19:01.823Z,8.50
2023-02-17T19:21:29.197Z,8.40
2023-02-17T19:23:56.673Z,8.30
2023-02-17T19:26:23.732Z,8.20
2023-02-17T19:28:51.255Z,8.30
2023-02-17T19:31:20.703Z,8.20
2023-02-17T19:33:48.376Z,8.20
2023-02-17T19:36:20.045Z,8.10
2023-02-17T19:38:48.764Z,8.10
2023-02-17T19:41:17.804Z,8.10
2023-02-17T19:43:46.298Z,8.10
2023-02-17T19:46:16.066Z,8.00
2023-02-17T19:48:43.284Z,8.00
2023-02-17T19:51:13.912Z,8.10
2023-02-17T19:53:45.685Z,7.90
2023-02-17T19:56:23.413Z,7.80
2023-02-17T19:58:52.430Z,7.90
2023-02-17T20:01:24.351Z,7.80
2023-02-17T20:03:54.603Z,7.90
2023-02-17T20:06:28.962Z,7.90
2023-02-17T20:09:00.842Z,7.90
2023-02-17T20:11:29.413Z,7.90
2023-02-17T20:13:59.866Z,7.70
2023-02-17T20:16:28.498Z,7.80
2023-02-17T20:18:55.990Z,7.80
2023-02-17T20:21:27.004Z,7.70
2023-02-17T20:23:55.199Z,7.70
2023-02-17T20:26:33.272Z,7.70
2023-02-17T20:29:01.906Z,7.70
2023-02-17T20:31:29.429Z,7.70
2023-02-17T20:33:57.098Z,7.70
2023-02-17T20:36:25.086Z,7.70
2023-02-17T20:38:52.553Z,7.70
2023-02-17T20:41:22.716Z,7.70
2023-02-17T20:43:51.469Z,7.70
2023-02-17T20:46:28.782Z,7.70
2023-02-17T20:48:59.326Z,7.80
2023-02-17T20:51:26.513Z,7.70
2023-02-17T20:53:53.480Z,7.70
2023-02-17T20:56:24.514Z,7.70
2023-02-17T20:58:52.940Z,7.70
2023-02-17T21:01:20.171Z,7.80
2023-02-17T21:03:47.488Z,7.70
2023-02-17T21:06:26.901Z,7.80
2023-02-17T21:09:02.106Z,7.80
2023-02-17T21:11:30.304Z,7.80
2023-02-17T21:13:57.472Z,7.80
2023-02-17T21:16:31.291Z,7.80
2023-02-17T21:19:00.968Z,7.80
2023-02-17T21:21:29.924Z,7.80
2023-02-17T21:23:59.337Z,7.80
2023-02-17T21:26:27.562Z,7.90
2023-02-17T21:28:55.157Z,7.80
2023-02-17T21:31:22.710Z,7.80
2023-02-17T21:33:49.897Z,7.80
2023-02-17T21:36:18.655Z,7.80
2023-02-17T21:38:47.495Z,7.80
2023-02-17T21:41:20.028Z,7.90
2023-02-17T21:44:06.874Z,7.80
2023-02-17T21:46:37.522Z,7.90
2023-02-17T21:49:04.879Z,7.80
2023-02-17T21:51:32.522Z,7.90
2023-02-17T21:54:00.264Z,7.90
2023-02-17T21:56:27.636Z,7.90
2023-02-17T21:58:56.363Z,7.90
2023-02-17T22:01:26.562Z,7.90
2023-02-17T22:03:54.531Z,7.90
2023-02-17T22:06:29.352Z,7.90
2023-02-17T22:08:58.620Z,7.90
2023-02-17T22:11:30.400Z,7.90
2023-02-17T22:14:01.322Z,7.90
2023-02-17T22:16:35.619Z,7.90
2023-02-17T22:19:08.681Z,7.80
2023-02-17T22:21:35.915Z,7.90
2023-02-17T22:24:03.360Z,7.80
2023-02-17T22:26:31.343Z,7.80
2023-02-17T22:28:59.092Z,7.90
2023-02-17T22:31:30.143Z,7.90
2023-02-17T22:34:01.204Z,7.90
2023-02-17T22:36:31.962Z,7.90
2023-02-17T22:38:59.868Z,7.90
2023-02-17T22:41:27.492Z,7.90
2023-02-17T22:43:55.301Z,8.00
2023-02-17T22:46:25.419Z,7.90
2023-02-17T22:48:54.944Z,7.90
2023-02-17T22:51:29.652Z,7.90
2023-02-17T22:53:59.633Z,7.90
2023-02-17T22:56:27.871Z,7.90
2023-02-17T22:59:00.981Z,7.90
2023-02-17T23:01:31.491Z,7.90
2023-02-17T23:03:59.540Z,7.90
2023-02-17T23:06:33.372Z,7.90
2023-02-17T23:09:01.487Z,7.90
2023-02-17T23:11:51.543Z,7.90
2023-02-17T23:14:25.382Z,7.80
2023-02-17T23:16:57.700Z,7.80
2023-02-17T23:19:25.073Z,7.80
2023-02-17T23:21:57.078Z,7.80
2023-02-17T23:24:26.312Z,7.80
2023-02-17T23:26:57.969Z,7.90
2023-02-17T23:29:25.177Z,7.80
2023-02-17T23:31:53.196Z,7.80
2023-02-17T23:34:22.009Z,7.90
2023-02-17T23:36:49.673Z,7.80
2023-02-17T23:39:17.333Z,7.80
2023-02-17T23:41:45.201Z,7.70
2023-02-17T23:44:14.881Z,7.70
2023-02-17T23:46:43.684Z,7.70
2023-02-17T23:49:15.494Z,7.80
2023-02-17T23:51:43.522Z,7.70
2023-02-17T23:54:10.888Z,7.70
2023-02-17T23:56:38.531Z,7.60
2023-02-17T23:59:05.814Z,7.70
